Terminal Aerodrome Forecast
Issued by NWS La Crosse, WI

Home | Current Version | Previous Version | Text Only | Print | Product List | Glossary On
Versions: 1 2 3 4 5 6 7 8 9 10 11 12 13 14 15 16 17 18 19 20 21 22 23 24 25
000
FTUS43 KARX 221819 AAA
TAFLSE
TAF AMD
KLSE 221819Z 2218/2318 VRB04KT P6SM BKN019
     FM222200 VRB03KT P6SM SCT025 BKN050
     FM230100 VRB03KT P6SM SCT050
     FM230900 14003KT 4SM BR SCT003
      TEMPO 2311/2313 1/2SM FG
     FM231400 15004KT P6SM SCT030 BKN070=

USA.gov is the U.S. government's official web portal to all federal, state and local government web resources and services.